sensor_id;sensor_type;location;lat;lon;timestamp;pressure;altitude;pressure_sealevel;temperature;humidity
49311;BME280;35177;45.900;5.946;2022-11-02T00:01:45;98361.38;;;8.03;100.00
49311;BME280;35177;45.900;5.946;2022-11-02T00:04:10;98361.91;;;8.10;100.00
49311;BME280;35177;45.900;5.946;2022-11-02T00:06:36;98366.59;;;8.10;100.00
49311;BME280;35177;45.900;5.946;2022-11-02T00:09:01;98365.75;;;8.19;100.00
49311;BME280;35177;45.900;5.946;2022-11-02T00:11:27;98364.41;;;8.07;100.00
49311;BME280;35177;45.900;5.946;2022-11-02T00:13:52;98373.28;;;7.98;100.00
49311;BME280;35177;45.900;5.946;2022-11-02T00:16:18;98373.56;;;7.92;100.00
49311;BME280;35177;45.900;5.946;2022-11-02T00:18:45;98366.06;;;8.02;100.00
49311;BME280;35177;45.900;5.946;2022-11-02T00:21:11;98375.44;;;8.17;100.00
49311;BME280;35177;45.900;5.946;2022-11-02T00:23:37;98369.88;;;8.22;100.00
49311;BME280;35177;45.900;5.946;2022-11-02T00:26:03;98381.50;;;8.24;100.00
49311;BME280;35177;45.900;5.946;2022-11-02T00:28:29;98377.91;;;8.29;100.00
49311;BME280;35177;45.900;5.946;2022-11-02T00:30:54;98383.41;;;8.39;100.00
49311;BME280;35177;45.900;5.946;2022-11-02T00:33:20;98387.53;;;8.42;100.00
49311;BME280;35177;45.900;5.946;2022-11-02T00:35:45;98381.44;;;8.45;100.00
49311;BME280;35177;45.900;5.946;2022-11-02T00:38:10;98378.13;;;8.58;100.00
49311;BME280;35177;45.900;5.946;2022-11-02T00:40:36;98380.88;;;8.58;100.00
49311;BME280;35177;45.900;5.946;2022-11-02T00:43:01;98390.25;;;8.62;100.00
49311;BME280;35177;45.900;5.946;2022-11-02T00:45:26;98379.28;;;8.47;100.00
49311;BME280;35177;45.900;5.946;2022-11-02T00:47:52;98386.19;;;8.29;100.00
49311;BME280;35177;45.900;5.946;2022-11-02T00:50:17;98379.53;;;8.35;100.00
49311;BME280;35177;45.900;5.946;2022-11-02T00:52:42;98377.59;;;8.35;100.00
49311;BME280;35177;45.900;5.946;2022-11-02T00:55:08;98386.25;;;8.08;100.00
49311;BME280;35177;45.900;5.946;2022-11-02T00:57:35;98381.00;;;8.07;100.00
49311;BME280;35177;45.900;5.946;2022-11-02T01:00:01;98387.63;;;8.21;100.00
49311;BME280;35177;45.900;5.946;2022-11-02T01:02:26;98385.41;;;8.18;100.00
49311;BME280;35177;45.900;5.946;2022-11-02T01:04:51;98385.63;;;8.27;100.00
49311;BME280;35177;45.900;5.946;2022-11-02T01:07:17;98377.34;;;8.27;100.00
49311;BME280;35177;45.900;5.946;2022-11-02T01:09:42;98381.75;;;8.33;100.00
49311;BME280;35177;45.900;5.946;2022-11-02T01:12:07;98365.97;;;8.39;100.00
49311;BME280;35177;45.900;5.946;2022-11-02T01:14:33;98367.06;;;8.43;100.00
49311;BME280;35177;45.900;5.946;2022-11-02T01:16:58;98381.75;;;8.43;100.00
49311;BME280;35177;45.900;5.946;2022-11-02T01:19:24;98398.34;;;8.48;100.00
49311;BME280;35177;45.900;5.946;2022-11-02T01:21:49;98386.44;;;8.53;100.00
49311;BME280;35177;45.900;5.946;2022-11-02T01:24:14;98385.56;;;8.63;100.00
49311;BME280;35177;45.900;5.946;2022-11-02T01:26:40;98388.31;;;8.68;100.00
49311;BME280;35177;45.900;5.946;2022-11-02T01:29:05;98374.72;;;8.72;100.00
49311;BME280;35177;45.900;5.946;2022-11-02T01:31:30;98375.81;;;8.76;100.00
49311;BME280;35177;45.900;5.946;2022-11-02T01:33:56;98382.75;;;8.73;100.00
49311;BME280;35177;45.900;5.946;2022-11-02T01:36:21;98381.34;;;8.76;100.00
49311;BME280;35177;45.900;5.946;2022-11-02T01:38:47;98378.28;;;8.82;100.00
49311;BME280;35177;45.900;5.946;2022-11-02T01:41:13;98373.25;;;8.90;100.00
49311;BME280;35177;45.900;5.946;2022-11-02T01:43:42;98369.09;;;8.92;100.00
49311;BME280;35177;45.900;5.946;2022-11-02T01:48:38;98372.19;;;8.80;100.00
49311;BME280;35177;45.900;5.946;2022-11-02T01:51:08;98369.13;;;8.82;100.00
49311;BME280;35177;45.900;5.946;2022-11-02T01:53:34;98384.06;;;8.91;100.00
49311;BME280;35177;45.900;5.946;2022-11-02T01:56:01;98376.34;;;8.83;100.00
49311;BME280;35177;45.900;5.946;2022-11-02T01:58:28;98386.00;;;8.86;100.00
49311;BME280;35177;45.900;5.946;2022-11-02T02:00:54;98382.38;;;8.90;100.00
49311;BME280;35177;45.900;5.946;2022-11-02T02:03:20;98372.66;;;8.98;100.00
49311;BME280;35177;45.900;5.946;2022-11-02T02:05:52;98377.38;;;8.97;100.00
49311;BME280;35177;45.900;5.946;2022-11-02T02:08:18;98365.44;;;9.02;100.00
49311;BME280;35177;45.900;5.946;2022-11-02T02:10:45;98360.69;;;9.08;100.00
49311;BME280;35177;45.900;5.946;2022-11-02T02:13:10;98365.91;;;9.14;100.00
49311;BME280;35177;45.900;5.946;2022-11-02T02:16:20;98360.63;;;9.18;100.00
49311;BME280;35177;45.900;5.946;2022-11-02T02:18:42;98367.28;;;9.17;100.00
49311;BME280;35177;45.900;5.946;2022-11-02T02:29:00;98367.16;;;8.93;100.00
49311;BME280;35177;45.900;5.946;2022-11-02T02:34:00;98360.53;;;8.89;100.00
49311;BME280;35177;45.900;5.946;2022-11-02T02:36:30;98362.69;;;9.02;100.00
49311;BME280;35177;45.900;5.946;2022-11-02T02:41:53;98362.38;;;9.04;100.00
49311;BME280;35177;45.900;5.946;2022-11-02T02:44:22;98363.16;;;9.09;100.00
49311;BME280;35177;45.900;5.946;2022-11-02T02:46:52;98369.75;;;9.19;100.00
49311;BME280;35177;45.900;5.946;2022-11-02T02:49:21;98368.34;;;9.21;100.00
49311;BME280;35177;45.900;5.946;2022-11-02T02:51:48;98364.50;;;9.17;100.00
49311;BME280;35177;45.900;5.946;2022-11-02T02:54:22;98367.25;;;9.22;100.00
49311;BME280;35177;45.900;5.946;2022-11-02T02:56:50;98355.31;;;9.27;100.00
49311;BME280;35177;45.900;5.946;2022-11-02T03:01:46;98347.50;;;9.29;100.00
49311;BME280;35177;45.900;5.946;2022-11-02T03:04:12;98350.56;;;9.27;100.00
49311;BME280;35177;45.900;5.946;2022-11-02T03:06:38;98360.56;;;9.28;100.00
49311;BME280;35177;45.900;5.946;2022-11-02T03:09:07;98361.06;;;9.36;100.00
49311;BME280;35177;45.900;5.946;2022-11-02T03:11:33;98353.00;;;9.39;100.00
49311;BME280;35177;45.900;5.946;2022-11-02T03:18:58;98364.59;;;9.41;100.00
49311;BME280;35177;45.900;5.946;2022-11-02T03:21:27;98358.53;;;9.39;100.00
49311;BME280;35177;45.900;5.946;2022-11-02T03:23:59;98362.63;;;9.47;100.00
49311;BME280;35177;45.900;5.946;2022-11-02T03:26:28;98363.16;;;9.49;100.00
49311;BME280;35177;45.900;5.946;2022-11-02T03:29:31;98362.88;;;9.51;100.00
49311;BME280;35177;45.900;5.946;2022-11-02T03:31:55;98366.22;;;9.47;100.00
49311;BME280;35177;45.900;5.946;2022-11-02T03:34:24;98363.41;;;9.53;100.00
49311;BME280;35177;45.900;5.946;2022-11-02T03:37:53;98359.25;;;9.55;100.00
49311;BME280;35177;45.900;5.946;2022-11-02T03:39:50;98361.72;;;9.57;100.00
49311;BME280;35177;45.900;5.946;2022-11-02T03:42:17;98372.34;;;9.44;100.00
49311;BME280;35177;45.900;5.946;2022-11-02T03:44:44;98368.53;;;9.35;100.00
49311;BME280;35177;45.900;5.946;2022-11-02T03:47:11;98374.69;;;9.22;100.00
49311;BME280;35177;45.900;5.946;2022-11-02T03:49:39;98368.31;;;9.26;100.00
49311;BME280;35177;45.900;5.946;2022-11-02T03:52:07;98369.38;;;9.36;100.00
49311;BME280;35177;45.900;5.946;2022-11-02T03:54:41;98369.63;;;9.39;100.00
49311;BME280;35177;45.900;5.946;2022-11-02T03:57:08;98371.78;;;9.42;100.00
49311;BME280;35177;45.900;5.946;2022-11-02T03:59:35;98364.84;;;9.45;100.00
49311;BME280;35177;45.900;5.946;2022-11-02T04:02:01;98366.59;;;9.36;100.00
49311;BME280;35177;45.900;5.946;2022-11-02T04:04:26;98359.41;;;9.35;100.00
49311;BME280;35177;45.900;5.946;2022-11-02T04:06:52;98367.72;;;9.35;100.00
49311;BME280;35177;45.900;5.946;2022-11-02T04:09:17;98376.31;;;9.33;100.00
49311;BME280;35177;45.900;5.946;2022-11-02T04:11:43;98379.59;;;9.35;100.00
49311;BME280;35177;45.900;5.946;2022-11-02T04:14:27;98383.78;;;9.32;100.00
49311;BME280;35177;45.900;5.946;2022-11-02T04:17:06;98380.50;;;9.30;100.00
49311;BME280;35177;45.900;5.946;2022-11-02T04:19:50;98379.03;;;9.38;100.00
49311;BME280;35177;45.900;5.946;2022-11-02T04:22:15;98381.22;;;9.41;100.00
49311;BME280;35177;45.900;5.946;2022-11-02T04:24:59;98389.06;;;9.29;100.00
49311;BME280;35177;45.900;5.946;2022-11-02T04:27:40;98395.41;;;9.35;100.00
49311;BME280;35177;45.900;5.946;2022-11-02T04:30:06;98396.22;;;9.40;100.00
49311;BME280;35177;45.900;5.946;2022-11-02T04:32:38;98388.97;;;9.44;100.00
49311;BME280;35177;45.900;5.946;2022-11-02T04:35:22;98391.16;;;9.47;100.00
49311;BME280;35177;45.900;5.946;2022-11-02T04:37:47;98397.78;;;9.52;100.00
49311;BME280;35177;45.900;5.946;2022-11-02T04:40:31;98406.41;;;9.50;100.00
49311;BME280;35177;45.900;5.946;2022-11-02T04:42:57;98397.78;;;9.52;100.00
49311;BME280;35177;45.900;5.946;2022-11-02T04:45:22;98401.38;;;9.52;100.00
49311;BME280;35177;45.900;5.946;2022-11-02T04:47:47;98397.19;;;9.55;100.00
49311;BME280;35177;45.900;5.946;2022-11-02T04:50:13;98393.91;;;9.53;100.00
49311;BME280;35177;45.900;5.946;2022-11-02T04:52:38;98402.88;;;9.39;100.00
49311;BME280;35177;45.900;5.946;2022-11-02T04:55:03;98404.91;;;9.23;100.00
49311;BME280;35177;45.900;5.946;2022-11-02T04:57:29;98400.41;;;9.32;100.00
49311;BME280;35177;45.900;5.946;2022-11-02T04:59:54;98396.81;;;9.32;100.00
49311;BME280;35177;45.900;5.946;2022-11-02T05:02:19;98401.03;;;9.24;100.00
49311;BME280;35177;45.900;5.946;2022-11-02T05:04:45;98408.22;;;9.20;100.00
49311;BME280;35177;45.900;5.946;2022-11-02T05:07:10;98410.16;;;9.25;100.00
49311;BME280;35177;45.900;5.946;2022-11-02T05:09:36;98410.44;;;9.23;100.00
49311;BME280;35177;45.900;5.946;2022-11-02T05:12:01;98419.81;;;9.27;100.00
49311;BME280;35177;45.900;5.946;2022-11-02T05:14:29;98414.88;;;9.24;100.00
49311;BME280;35177;45.900;5.946;2022-11-02T05:16:54;98421.22;;;9.25;100.00
49311;BME280;35177;45.900;5.946;2022-11-02T05:19:19;98422.63;;;9.22;100.00
49311;BME280;35177;45.900;5.946;2022-11-02T05:21:45;98422.03;;;9.25;100.00
49311;BME280;35177;45.900;5.946;2022-11-02T05:24:10;98426.50;;;9.21;100.00
49311;BME280;35177;45.900;5.946;2022-11-02T05:26:35;98422.13;;;9.15;100.00
49311;BME280;35177;45.900;5.946;2022-11-02T05:29:01;98427.97;;;9.08;100.00
49311;BME280;35177;45.900;5.946;2022-11-02T05:31:26;98432.38;;;9.14;100.00
49311;BME280;35177;45.900;5.946;2022-11-02T05:33:51;98431.78;;;9.18;100.00
49311;BME280;35177;45.900;5.946;2022-11-02T05:36:17;98439.28;;;9.17;100.00
49311;BME280;35177;45.900;5.946;2022-11-02T05:38:42;98440.72;;;9.04;100.00
49311;BME280;35177;45.900;5.946;2022-11-02T05:41:07;98442.31;;;9.15;100.00
49311;BME280;35177;45.900;5.946;2022-11-02T05:43:33;98433.78;;;9.12;100.00
49311;BME280;35177;45.900;5.946;2022-11-02T05:45:59;98440.13;;;9.12;100.00
49311;BME280;35177;45.900;5.946;2022-11-02T05:48:25;98439.06;;;9.08;100.00
49311;BME280;35177;45.900;5.946;2022-11-02T05:50:58;98446.59;;;8.97;100.00
49311;BME280;35177;45.900;5.946;2022-11-02T05:53:24;98443.56;;;8.94;100.00
49311;BME280;35177;45.900;5.946;2022-11-02T05:55:50;98436.09;;;8.89;100.00
49311;BME280;35177;45.900;5.946;2022-11-02T05:58:16;98448.03;;;8.79;100.00
49311;BME280;35177;45.900;5.946;2022-11-02T06:00:41;98445.03;;;8.65;100.00
49311;BME280;35177;45.900;5.946;2022-11-02T06:03:06;98449.50;;;8.56;100.00
49311;BME280;35177;45.900;5.946;2022-11-02T06:05:32;98450.56;;;8.71;100.00
49311;BME280;35177;45.900;5.946;2022-11-02T06:07:58;98443.38;;;8.70;100.00
49311;BME280;35177;45.900;5.946;2022-11-02T06:10:24;98450.88;;;8.43;100.00
49311;BME280;35177;45.900;5.946;2022-11-02T06:12:58;98450.03;;;8.43;100.00
49311;BME280;35177;45.900;5.946;2022-11-02T06:15:24;98455.63;;;8.12;100.00
49311;BME280;35177;45.900;5.946;2022-11-02T06:17:50;98449.81;;;8.18;100.00
49311;BME280;35177;45.900;5.946;2022-11-02T06:20:15;98451.75;;;8.18;100.00
49311;BME280;35177;45.900;5.946;2022-11-02T06:22:41;98458.97;;;7.98;100.00
49311;BME280;35177;45.900;5.946;2022-11-02T06:25:07;98461.19;;;7.81;100.00
49311;BME280;35177;45.900;5.946;2022-11-02T06:27:32;98459.81;;;7.78;100.00
49311;BME280;35177;45.900;5.946;2022-11-02T06:29:58;98461.47;;;7.79;100.00
49311;BME280;35177;45.900;5.946;2022-11-02T06:32:23;98461.16;;;7.91;100.00
49311;BME280;35177;45.900;5.946;2022-11-02T06:34:48;98472.78;;;7.93;100.00
49311;BME280;35177;45.900;5.946;2022-11-02T06:37:14;98471.94;;;8.08;100.00
49311;BME280;35177;45.900;5.946;2022-11-02T06:39:39;98481.06;;;7.98;100.00
49311;BME280;35177;45.900;5.946;2022-11-02T06:42:04;98483.28;;;8.01;100.00
49311;BME280;35177;45.900;5.946;2022-11-02T06:44:30;98484.66;;;8.30;100.00
49311;BME280;35177;45.900;5.946;2022-11-02T06:46:55;98484.38;;;8.31;100.00
49311;BME280;35177;45.900;5.946;2022-11-02T06:49:20;98485.75;;;8.13;100.00
49311;BME280;35177;45.900;5.946;2022-11-02T06:51:49;98481.06;;;8.14;100.00
49311;BME280;35177;45.900;5.946;2022-11-02T06:54:14;98493.25;;;8.08;100.00
49311;BME280;35177;45.900;5.946;2022-11-02T06:56:39;98499.59;;;8.08;100.00
49311;BME280;35177;45.900;5.946;2022-11-02T06:59:05;98500.41;;;8.19;100.00
49311;BME280;35177;45.900;5.946;2022-11-02T07:01:30;98496.28;;;8.22;100.00
49311;BME280;35177;45.900;5.946;2022-11-02T07:03:55;98501.78;;;8.42;100.00
49311;BME280;35177;45.900;5.946;2022-11-02T07:06:20;98502.63;;;8.48;100.00
49311;BME280;35177;45.900;5.946;2022-11-02T07:08:46;98501.50;;;8.54;100.00
49311;BME280;35177;45.900;5.946;2022-11-02T07:11:12;98511.16;;;8.67;100.00
49311;BME280;35177;45.900;5.946;2022-11-02T07:13:38;98512.81;;;8.73;100.00
49311;BME280;35177;45.900;5.946;2022-11-02T07:16:03;98507.22;;;9.54;100.00
49311;BME280;35177;45.900;5.946;2022-11-02T07:18:28;98502.81;;;9.48;100.00
49311;BME280;35177;45.900;5.946;2022-11-02T07:20:54;98517.00;;;9.36;100.00
49311;BME280;35177;45.900;5.946;2022-11-02T07:23:19;98512.91;;;9.28;100.00
49311;BME280;35177;45.900;5.946;2022-11-02T07:25:47;98516.44;;;9.39;100.00
49311;BME280;35177;45.900;5.946;2022-11-02T07:28:13;98507.22;;;9.54;100.00
49311;BME280;35177;45.900;5.946;2022-11-02T07:30:38;98516.78;;;9.77;100.00
49311;BME280;35177;45.900;5.946;2022-11-02T07:33:03;98512.34;;;9.76;100.00
49311;BME280;35177;45.900;5.946;2022-11-02T07:35:29;98510.81;;;9.60;100.00
49311;BME280;35177;45.900;5.946;2022-11-02T07:37:58;98525.00;;;9.48;100.00
49311;BME280;35177;45.900;5.946;2022-11-02T07:40:24;98523.47;;;9.71;100.00
49311;BME280;35177;45.900;5.946;2022-11-02T07:42:50;98524.72;;;9.94;100.00
49311;BME280;35177;45.900;5.946;2022-11-02T07:45:17;98524.72;;;9.89;100.00
49311;BME280;35177;45.900;5.946;2022-11-02T07:47:43;98527.53;;;9.84;100.00
49311;BME280;35177;45.900;5.946;2022-11-02T07:50:09;98524.50;;;9.86;100.00
49311;BME280;35177;45.900;5.946;2022-11-02T07:52:34;98528.94;;;9.81;100.00
49311;BME280;35177;45.900;5.946;2022-11-02T07:54:59;98525.66;;;9.79;100.00
49311;BME280;35177;45.900;5.946;2022-11-02T07:57:25;98522.38;;;9.72;100.00
49311;BME280;35177;45.900;5.946;2022-11-02T07:59:50;98521.88;;;10.00;100.00
49311;BME280;35177;45.900;5.946;2022-11-02T08:02:15;98523.00;;;9.99;100.00
49311;BME280;35177;45.900;5.946;2022-11-02T08:04:41;98519.84;;;9.76;100.00
49311;BME280;35177;45.900;5.946;2022-11-02T08:07:06;98522.53;;;9.86;100.00
49311;BME280;35177;45.900;5.946;2022-11-02T08:09:31;98525.91;;;9.78;100.00
49311;BME280;35177;45.900;5.946;2022-11-02T08:11:57;98517.06;;;9.76;100.00
49311;BME280;35177;45.900;5.946;2022-11-02T08:14:22;98523.44;;;9.76;100.00
49311;BME280;35177;45.900;5.946;2022-11-02T08:16:50;98523.19;;;9.73;100.00
49311;BME280;35177;45.900;5.946;2022-11-02T08:19:15;98526.81;;;9.68;100.00
49311;BME280;35177;45.900;5.946;2022-11-02T08:21:41;98520.78;;;10.01;100.00
49311;BME280;35177;45.900;5.946;2022-11-02T08:24:06;98517.16;;;10.00;100.00
49311;BME280;35177;45.900;5.946;2022-11-02T08:26:31;98515.78;;;9.97;100.00
49311;BME280;35177;45.900;5.946;2022-11-02T08:28:57;98512.97;;;10.08;100.00
49311;BME280;35177;45.900;5.946;2022-11-02T08:31:22;98512.06;;;10.12;100.00
49311;BME280;35177;45.900;5.946;2022-11-02T08:33:48;98510.25;;;10.32;100.00
49311;BME280;35177;45.900;5.946;2022-11-02T08:36:14;98512.13;;;10.42;100.00
49311;BME280;35177;45.900;5.946;2022-11-02T08:38:39;98507.59;;;10.51;100.00
49311;BME280;35177;45.900;5.946;2022-11-02T08:41:05;98503.91;;;10.61;100.00
49311;BME280;35177;45.900;5.946;2022-11-02T08:43:30;98505.25;;;10.64;100.00
49311;BME280;35177;45.900;5.946;2022-11-02T08:45:57;98503.97;;;10.80;100.00
49311;BME280;35177;45.900;5.946;2022-11-02T08:48:23;98494.94;;;10.93;100.00
49311;BME280;35177;45.900;5.946;2022-11-02T08:50:48;98500.91;;;11.06;100.00
49311;BME280;35177;45.900;5.946;2022-11-02T08:53:14;98497.34;;;11.24;100.00
49311;BME280;35177;45.900;5.946;2022-11-02T08:55:39;98487.69;;;11.60;100.00
49311;BME280;35177;45.900;5.946;2022-11-02T08:58:04;98490.69;;;11.64;100.00
49311;BME280;35177;45.900;5.946;2022-11-02T09:00:31;98489.66;;;11.98;100.00
49311;BME280;35177;45.900;5.946;2022-11-02T09:03:04;98483.78;;;12.32;100.00
49311;BME280;35177;45.900;5.946;2022-11-02T09:05:36;98479.00;;;12.19;100.00
49311;BME280;35177;45.900;5.946;2022-11-02T09:08:03;98479.75;;;12.25;100.00
49311;BME280;35177;45.900;5.946;2022-11-02T09:10:29;98481.78;;;12.19;100.00
49311;BME280;35177;45.900;5.946;2022-11-02T09:12:55;98476.41;;;12.42;100.00
49311;BME280;35177;45.900;5.946;2022-11-02T09:15:20;98469.28;;;12.49;100.00
49311;BME280;35177;45.900;5.946;2022-11-02T09:17:46;98466.84;;;12.62;100.00
49311;BME280;35177;45.900;5.946;2022-11-02T09:20:14;98461.69;;;12.69;100.00
49311;BME280;35177;45.900;5.946;2022-11-02T09:22:39;98463.13;;;13.08;100.00
49311;BME280;35177;45.900;5.946;2022-11-02T09:25:05;98456.97;;;13.11;100.00
49311;BME280;35177;45.900;5.946;2022-11-02T09:27:30;98457.97;;;13.15;100.00
49311;BME280;35177;45.900;5.946;2022-11-02T09:29:56;98460.84;;;13.52;100.00
49311;BME280;35177;45.900;5.946;2022-11-02T09:32:21;98458.34;;;13.50;100.00
49311;BME280;35177;45.900;5.946;2022-11-02T09:34:46;98453.94;;;13.49;100.00
49311;BME280;35177;45.900;5.946;2022-11-02T09:37:14;98449.31;;;13.68;100.00
49311;BME280;35177;45.900;5.946;2022-11-02T09:39:39;98441.59;;;13.87;100.00
49311;BME280;35177;45.900;5.946;2022-11-02T09:42:06;98437.69;;;14.11;100.00
49311;BME280;35177;45.900;5.946;2022-11-02T09:44:46;98428.81;;;14.40;100.00
49311;BME280;35177;45.900;5.946;2022-11-02T09:47:13;98425.66;;;15.05;100.00
49311;BME280;35177;45.900;5.946;2022-11-02T09:49:39;98424.69;;;14.69;100.00
49311;BME280;35177;45.900;5.946;2022-11-02T09:52:06;98414.91;;;14.49;100.00
49311;BME280;35177;45.900;5.946;2022-11-02T09:54:43;98422.19;;;14.59;100.00
49311;BME280;35177;45.900;5.946;2022-11-02T09:57:13;98418.03;;;14.88;100.00
49311;BME280;35177;45.900;5.946;2022-11-02T09:59:39;98421.66;;;14.88;100.00
49311;BME280;35177;45.900;5.946;2022-11-02T10:02:10;98423.69;;;14.34;100.00
49311;BME280;35177;45.900;5.946;2022-11-02T10:07:33;98420.59;;;14.12;100.00
49311;BME280;35177;45.900;5.946;2022-11-02T10:15:23;98412.41;;;14.16;100.00
49311;BME280;35177;45.900;5.946;2022-11-02T10:17:52;98407.91;;;14.38;100.00
49311;BME280;35177;45.900;5.946;2022-11-02T10:20:23;98402.56;;;14.82;100.00
49311;BME280;35177;45.900;5.946;2022-11-02T10:22:49;98404.94;;;15.15;100.00
49311;BME280;35177;45.900;5.946;2022-11-02T10:25:15;98397.34;;;15.06;100.00
49311;BME280;35177;45.900;5.946;2022-11-02T10:27:41;98395.59;;;15.46;100.00
49311;BME280;35177;45.900;5.946;2022-11-02T10:30:12;98397.44;;;15.41;100.00
49311;BME280;35177;45.900;5.946;2022-11-02T10:32:39;98394.47;;;15.55;100.00
49311;BME280;35177;45.900;5.946;2022-11-02T10:35:08;98394.63;;;15.77;100.00
49311;BME280;35177;45.900;5.946;2022-11-02T10:45:34;98391.28;;;16.27;100.00
49311;BME280;35177;45.900;5.946;2022-11-02T10:48:01;98391.00;;;16.02;100.00
49311;BME280;35177;45.900;5.946;2022-11-02T10:52:59;98378.84;;;15.89;100.00
49311;BME280;35177;45.900;5.946;2022-11-02T10:55:31;98369.91;;;16.05;100.00
49311;BME280;35177;45.900;5.946;2022-11-02T10:57:59;98363.94;;;16.24;100.00
49311;BME280;35177;45.900;5.946;2022-11-02T11:00:34;98356.59;;;16.49;100.00
49311;BME280;35177;45.900;5.946;2022-11-02T11:03:07;98356.75;;;16.05;100.00
49311;BME280;35177;45.900;5.946;2022-11-02T11:05:34;98347.50;;;16.05;100.00
49311;BME280;35177;45.900;5.946;2022-11-02T11:08:00;98349.50;;;16.04;100.00
49311;BME280;35177;45.900;5.946;2022-11-02T11:10:26;98367.63;;;15.89;100.00
49311;BME280;35177;45.900;5.946;2022-11-02T11:12:51;98352.16;;;15.57;100.00
49311;BME280;35177;45.900;5.946;2022-11-02T11:15:22;98341.44;;;15.77;100.00
49311;BME280;35177;45.900;5.946;2022-11-02T11:17:49;98336.50;;;15.73;100.00
49311;BME280;35177;45.900;5.946;2022-11-02T11:23:11;98325.16;;;15.87;100.00
49311;BME280;35177;45.900;5.946;2022-11-02T11:25:40;98325.50;;;15.86;100.00
49311;BME280;35177;45.900;5.946;2022-11-02T11:28:19;98325.50;;;15.86;100.00
49311;BME280;35177;45.900;5.946;2022-11-02T11:30:45;98323.34;;;15.92;100.00
49311;BME280;35177;45.900;5.946;2022-11-02T11:33:14;98309.75;;;16.20;100.00
49311;BME280;35177;45.900;5.946;2022-11-02T11:35:41;98307.25;;;16.27;100.00
49311;BME280;35177;45.900;5.946;2022-11-02T11:38:15;98307.94;;;16.15;100.00
49311;BME280;35177;45.900;5.946;2022-11-02T11:40:42;98302.72;;;15.96;100.00
49311;BME280;35177;45.900;5.946;2022-11-02T11:43:09;98296.38;;;16.26;100.00
49311;BME280;35177;45.900;5.946;2022-11-02T11:45:36;98302.69;;;16.14;100.00
49311;BME280;35177;45.900;5.946;2022-11-02T11:48:04;98298.91;;;16.10;100.00
49311;BME280;35177;45.900;5.946;2022-11-02T11:50:30;98291.06;;;16.33;100.00
49311;BME280;35177;45.900;5.946;2022-11-02T11:53:08;98290.97;;;16.20;100.00
49311;BME280;35177;45.900;5.946;2022-11-02T11:55:35;98284.72;;;16.15;100.00
49311;BME280;35177;45.900;5.946;2022-11-02T12:00:41;98292.41;;;15.88;100.00
49311;BME280;35177;45.900;5.946;2022-11-02T12:03:07;98280.03;;;15.89;100.00
49311;BME280;35177;45.900;5.946;2022-11-02T12:13:37;98267.22;;;15.88;100.00
49311;BME280;35177;45.900;5.946;2022-11-02T12:16:30;98257.00;;;15.74;100.00
49311;BME280;35177;45.900;5.946;2022-11-02T12:26:49;98242.59;;;16.02;100.00
49311;BME280;35177;45.900;5.946;2022-11-02T12:37:25;98235.91;;;15.86;100.00
49311;BME280;35177;45.900;5.946;2022-11-02T12:42:37;98234.50;;;16.10;100.00
49311;BME280;35177;45.900;5.946;2022-11-02T12:50:17;98234.31;;;16.15;99.78
49311;BME280;35177;45.900;5.946;2022-11-02T12:55:33;98225.66;;;15.99;96.83
49311;BME280;35177;45.900;5.946;2022-11-02T12:58:02;98231.50;;;16.15;98.07
49311;BME280;35177;45.900;5.946;2022-11-02T13:00:29;98229.38;;;16.42;92.48
49311;BME280;35177;45.900;5.946;2022-11-02T13:03:00;98228.91;;;16.40;90.83
49311;BME280;35177;45.900;5.946;2022-11-02T13:05:36;98219.97;;;16.46;100.00
49311;BME280;35177;45.900;5.946;2022-11-02T13:08:31;98217.31;;;16.50;100.00
49311;BME280;35177;45.900;5.946;2022-11-02T13:10:49;98209.22;;;16.27;97.28
49311;BME280;35177;45.900;5.946;2022-11-02T13:13:16;98212.03;;;16.27;96.77
49311;BME280;35177;45.900;5.946;2022-11-02T13:15:45;98210.09;;;16.19;100.00
49311;BME280;35177;45.900;5.946;2022-11-02T13:18:18;98205.34;;;16.11;100.00
49311;BME280;35177;45.900;5.946;2022-11-02T13:20:51;98197.56;;;16.16;100.00
49311;BME280;35177;45.900;5.946;2022-11-02T13:23:27;98200.03;;;16.18;100.00
49311;BME280;35177;45.900;5.946;2022-11-02T13:25:57;98194.94;;;16.20;100.00
49311;BME280;35177;45.900;5.946;2022-11-02T13:28:33;98185.75;;;16.11;99.64
49311;BME280;35177;45.900;5.946;2022-11-02T13:31:03;98189.31;;;16.20;94.29
49311;BME280;35177;45.900;5.946;2022-11-02T13:33:47;98188.03;;;16.17;100.00
49311;BME280;35177;45.900;5.946;2022-11-02T13:36:14;98187.91;;;16.35;100.00
49311;BME280;35177;45.900;5.946;2022-11-02T13:38:44;98177.81;;;16.43;97.69
49311;BME280;35177;45.900;5.946;2022-11-02T13:46:18;98171.56;;;16.37;93.50
49311;BME280;35177;45.900;5.946;2022-11-02T13:51:56;98162.63;;;16.44;100.00
49311;BME280;35177;45.900;5.946;2022-11-02T13:54:04;98162.75;;;16.26;88.96
49311;BME280;35177;45.900;5.946;2022-11-02T13:56:33;98164.25;;;16.24;95.13
49311;BME280;35177;45.900;5.946;2022-11-02T13:59:06;98165.28;;;16.19;100.00
49311;BME280;35177;45.900;5.946;2022-11-02T14:01:32;98155.66;;;16.29;99.42
49311;BME280;35177;45.900;5.946;2022-11-02T14:04:02;98147.13;;;16.25;100.00
49311;BME280;35177;45.900;5.946;2022-11-02T14:06:29;98158.88;;;16.10;94.81
49311;BME280;35177;45.900;5.946;2022-11-02T14:09:03;98162.09;;;15.99;97.82
49311;BME280;35177;45.900;5.946;2022-11-02T14:16:44;98150.59;;;15.92;100.00
49311;BME280;35177;45.900;5.946;2022-11-02T14:26:57;98147.03;;;15.74;100.00
49311;BME280;35177;45.900;5.946;2022-11-02T14:32:01;98143.91;;;15.67;100.00
49311;BME280;35177;45.900;5.946;2022-11-02T14:34:31;98147.84;;;15.74;100.00
49311;BME280;35177;45.900;5.946;2022-11-02T14:37:16;98144.06;;;15.70;100.00
49311;BME280;35177;45.900;5.946;2022-11-02T14:39:49;98140.81;;;15.68;100.00
49311;BME280;35177;45.900;5.946;2022-11-02T14:42:31;98139.19;;;15.58;100.00
49311;BME280;35177;45.900;5.946;2022-11-02T14:47:43;98129.06;;;15.45;100.00
49311;BME280;35177;45.900;5.946;2022-11-02T14:50:13;98132.66;;;15.46;100.00